Terminal Aerodrome Forecast
Issued by NWS Wichita, KS

Home | Current Version | Previous Version | Text Only | Print | Product List | Glossary On
Versions: 1 2 3 4 5 6 7 8 9 10 11 12 13 14 15 16 17 18 19 20 21 22
000
FTUS43 KICT 301735
TAFICT
TAF
KICT 301735Z 3018/3118 18010KT P6SM SCT050
     FM310000 16010KT P6SM BKN250
     FM311000 17007KT P6SM VCTS SCT025 BKN060CB
     FM311200 18007KT 5SM TSRA SCT015 BKN040CB=

USA.gov is the U.S. government's official web portal to all federal, state and local government web resources and services.